sensor_id;sensor_type;location;lat;lon;timestamp;P1;durP1;ratioP1;P2;durP2;ratioP2
59770;SDS011;45649;53.014;6.600;2022-09-30T00:00:27;4.60;;;4.30;;
59770;SDS011;45649;53.014;6.600;2022-09-30T00:02:54;4.63;;;4.33;;
59770;SDS011;45649;53.014;6.600;2022-09-30T00:05:20;4.90;;;4.50;;
59770;SDS011;45649;53.014;6.600;2022-09-30T00:07:46;4.70;;;4.40;;
59770;SDS011;45649;53.014;6.600;2022-09-30T00:10:12;4.83;;;4.43;;
59770;SDS011;45649;53.014;6.600;2022-09-30T00:12:39;4.43;;;4.07;;
59770;SDS011;45649;53.014;6.600;2022-09-30T00:15:05;4.90;;;4.50;;
59770;SDS011;45649;53.014;6.600;2022-09-30T00:17:32;4.70;;;4.30;;
59770;SDS011;45649;53.014;6.600;2022-09-30T00:19:58;4.30;;;3.90;;
59770;SDS011;45649;53.014;6.600;2022-09-30T00:22:23;4.60;;;4.30;;
59770;SDS011;45649;53.014;6.600;2022-09-30T00:24:49;4.70;;;4.40;;
59770;SDS011;45649;53.014;6.600;2022-09-30T00:27:15;4.13;;;3.80;;
59770;SDS011;45649;53.014;6.600;2022-09-30T00:29:42;4.40;;;4.10;;
59770;SDS011;45649;53.014;6.600;2022-09-30T00:32:09;4.30;;;4.10;;
59770;SDS011;45649;53.014;6.600;2022-09-30T00:34:35;4.80;;;4.10;;
59770;SDS011;45649;53.014;6.600;2022-09-30T00:37:01;4.27;;;3.97;;
59770;SDS011;45649;53.014;6.600;2022-09-30T00:39:27;4.33;;;3.80;;
59770;SDS011;45649;53.014;6.600;2022-09-30T00:42:01;3.87;;;3.60;;
59770;SDS011;45649;53.014;6.600;2022-09-30T00:47:23;4.63;;;3.70;;
59770;SDS011;45649;53.014;6.600;2022-09-30T00:59:24;1.90;;;1.80;;
59770;SDS011;45649;53.014;6.600;2022-09-30T01:01:37;1.70;;;1.70;;
59770;SDS011;45649;53.014;6.600;2022-09-30T01:04:05;2.10;;;2.00;;
59770;SDS011;45649;53.014;6.600;2022-09-30T01:06:34;1.90;;;1.80;;
59770;SDS011;45649;53.014;6.600;2022-09-30T01:09:01;2.50;;;2.40;;
59770;SDS011;45649;53.014;6.600;2022-09-30T01:11:27;2.67;;;2.57;;
59770;SDS011;45649;53.014;6.600;2022-09-30T01:13:54;2.90;;;2.70;;
59770;SDS011;45649;53.014;6.600;2022-09-30T01:21:58;3.60;;;3.00;;
59770;SDS011;45649;53.014;6.600;2022-09-30T01:27:22;2.57;;;2.47;;
59770;SDS011;45649;53.014;6.600;2022-09-30T01:30:20;2.50;;;2.40;;
59770;SDS011;45649;53.014;6.600;2022-09-30T01:33:02;3.20;;;3.00;;
59770;SDS011;45649;53.014;6.600;2022-09-30T01:38:15;2.90;;;2.80;;
59770;SDS011;45649;53.014;6.600;2022-09-30T01:46:17;2.67;;;2.53;;
59770;SDS011;45649;53.014;6.600;2022-09-30T01:49:11;2.83;;;2.73;;
59770;SDS011;45649;53.014;6.600;2022-09-30T01:57:10;3.10;;;2.90;;
59770;SDS011;45649;53.014;6.600;2022-09-30T01:59:45;2.90;;;2.80;;
59770;SDS011;45649;53.014;6.600;2022-09-30T02:02:25;3.30;;;3.10;;
59770;SDS011;45649;53.014;6.600;2022-09-30T02:04:54;3.37;;;3.17;;
59770;SDS011;45649;53.014;6.600;2022-09-30T02:07:42;3.37;;;3.17;;
59770;SDS011;45649;53.014;6.600;2022-09-30T02:10:14;3.57;;;3.27;;
59770;SDS011;45649;53.014;6.600;2022-09-30T02:12:57;3.50;;;3.20;;
59770;SDS011;45649;53.014;6.600;2022-09-30T02:15:36;3.23;;;3.03;;
59770;SDS011;45649;53.014;6.600;2022-09-30T02:18:10;3.40;;;3.20;;
59770;SDS011;45649;53.014;6.600;2022-09-30T02:20:44;3.60;;;3.30;;
59770;SDS011;45649;53.014;6.600;2022-09-30T02:23:15;3.70;;;3.50;;
59770;SDS011;45649;53.014;6.600;2022-09-30T02:26:33;4.33;;;3.53;;
59770;SDS011;45649;53.014;6.600;2022-09-30T02:28:41;3.80;;;3.60;;
59770;SDS011;45649;53.014;6.600;2022-09-30T02:31:13;3.30;;;3.07;;
59770;SDS011;45649;53.014;6.600;2022-09-30T02:33:43;3.70;;;3.50;;
59770;SDS011;45649;53.014;6.600;2022-09-30T02:36:18;3.80;;;3.50;;
59770;SDS011;45649;53.014;6.600;2022-09-30T02:38:53;3.83;;;3.53;;
59770;SDS011;45649;53.014;6.600;2022-09-30T02:41:27;3.70;;;3.50;;
59770;SDS011;45649;53.014;6.600;2022-09-30T02:43:57;3.67;;;3.40;;
59770;SDS011;45649;53.014;6.600;2022-09-30T02:46:30;3.67;;;3.47;;
59770;SDS011;45649;53.014;6.600;2022-09-30T02:51:39;4.17;;;3.90;;
59770;SDS011;45649;53.014;6.600;2022-09-30T02:57:15;6.17;;;3.77;;
59770;SDS011;45649;53.014;6.600;2022-09-30T02:59:46;3.97;;;3.57;;
59770;SDS011;45649;53.014;6.600;2022-09-30T03:02:16;4.57;;;3.70;;
59770;SDS011;45649;53.014;6.600;2022-09-30T03:04:43;4.07;;;3.77;;
59770;SDS011;45649;53.014;6.600;2022-09-30T03:07:10;4.00;;;3.70;;
59770;SDS011;45649;53.014;6.600;2022-09-30T03:09:36;4.07;;;3.70;;
59770;SDS011;45649;53.014;6.600;2022-09-30T03:12:47;4.13;;;3.83;;
59770;SDS011;45649;53.014;6.600;2022-09-30T03:17:51;4.33;;;4.10;;
59770;SDS011;45649;53.014;6.600;2022-09-30T03:20:36;4.50;;;4.20;;
59770;SDS011;45649;53.014;6.600;2022-09-30T03:26:03;4.80;;;4.40;;
59770;SDS011;45649;53.014;6.600;2022-09-30T03:28:35;4.23;;;3.90;;
59770;SDS011;45649;53.014;6.600;2022-09-30T03:31:08;4.50;;;4.20;;
59770;SDS011;45649;53.014;6.600;2022-09-30T03:33:51;4.70;;;4.40;;
59770;SDS011;45649;53.014;6.600;2022-09-30T03:36:25;6.30;;;4.50;;
59770;SDS011;45649;53.014;6.600;2022-09-30T03:39:11;4.67;;;4.37;;
59770;SDS011;45649;53.014;6.600;2022-09-30T03:41:45;4.43;;;4.07;;
59770;SDS011;45649;53.014;6.600;2022-09-30T03:44:32;4.33;;;4.03;;
59770;SDS011;45649;53.014;6.600;2022-09-30T03:47:16;4.90;;;4.50;;
59770;SDS011;45649;53.014;6.600;2022-09-30T03:49:46;3.53;;;3.13;;
59770;SDS011;45649;53.014;6.600;2022-09-30T03:52:15;3.38;;;3.17;;
59770;SDS011;45649;53.014;6.600;2022-09-30T03:54:49;3.13;;;2.93;;
59770;SDS011;45649;53.014;6.600;2022-09-30T03:57:17;3.03;;;2.80;;
59770;SDS011;45649;53.014;6.600;2022-09-30T03:59:43;2.60;;;2.50;;
59770;SDS011;45649;53.014;6.600;2022-09-30T04:02:09;2.70;;;2.60;;
59770;SDS011;45649;53.014;6.600;2022-09-30T04:04:40;3.13;;;2.93;;
59770;SDS011;45649;53.014;6.600;2022-09-30T04:07:07;3.40;;;3.20;;
59770;SDS011;45649;53.014;6.600;2022-09-30T04:09:34;3.50;;;2.93;;
59770;SDS011;45649;53.014;6.600;2022-09-30T04:12:00;3.20;;;3.00;;
59770;SDS011;45649;53.014;6.600;2022-09-30T04:14:27;3.03;;;2.83;;
59770;SDS011;45649;53.014;6.600;2022-09-30T04:16:53;2.80;;;2.60;;
59770;SDS011;45649;53.014;6.600;2022-09-30T04:19:20;2.70;;;2.60;;
59770;SDS011;45649;53.014;6.600;2022-09-30T04:21:46;3.20;;;2.97;;
59770;SDS011;45649;53.014;6.600;2022-09-30T04:24:12;2.80;;;2.70;;
59770;SDS011;45649;53.014;6.600;2022-09-30T04:26:37;3.00;;;2.90;;
59770;SDS011;45649;53.014;6.600;2022-09-30T04:29:03;5.00;;;3.00;;
59770;SDS011;45649;53.014;6.600;2022-09-30T04:31:29;3.38;;;3.17;;
59770;SDS011;45649;53.014;6.600;2022-09-30T04:33:55;3.53;;;3.20;;
59770;SDS011;45649;53.014;6.600;2022-09-30T04:36:21;3.43;;;3.20;;
59770;SDS011;45649;53.014;6.600;2022-09-30T04:38:48;4.03;;;3.50;;
59770;SDS011;45649;53.014;6.600;2022-09-30T04:41:14;7.33;;;3.50;;
59770;SDS011;45649;53.014;6.600;2022-09-30T04:43:41;4.20;;;3.30;;
59770;SDS011;45649;53.014;6.600;2022-09-30T04:46:11;4.40;;;3.70;;
59770;SDS011;45649;53.014;6.600;2022-09-30T04:48:41;3.63;;;3.30;;
59770;SDS011;45649;53.014;6.600;2022-09-30T04:51:10;7.77;;;3.60;;
59770;SDS011;45649;53.014;6.600;2022-09-30T04:53:40;3.60;;;2.80;;
59770;SDS011;45649;53.014;6.600;2022-09-30T04:56:06;6.73;;;3.00;;
59770;SDS011;45649;53.014;6.600;2022-09-30T04:58:33;4.53;;;2.67;;
59770;SDS011;45649;53.014;6.600;2022-09-30T05:01:05;7.90;;;3.10;;
59770;SDS011;45649;53.014;6.600;2022-09-30T05:03:33;3.30;;;3.10;;
59770;SDS011;45649;53.014;6.600;2022-09-30T05:05:59;3.90;;;3.70;;
59770;SDS011;45649;53.014;6.600;2022-09-30T05:08:26;3.30;;;3.10;;
59770;SDS011;45649;53.014;6.600;2022-09-30T05:10:53;2.70;;;2.60;;
59770;SDS011;45649;53.014;6.600;2022-09-30T05:13:33;2.50;;;2.30;;
59770;SDS011;45649;53.014;6.600;2022-09-30T05:16:00;2.70;;;2.60;;
59770;SDS011;45649;53.014;6.600;2022-09-30T05:18:26;2.47;;;2.37;;
59770;SDS011;45649;53.014;6.600;2022-09-30T05:20:53;2.90;;;2.70;;
59770;SDS011;45649;53.014;6.600;2022-09-30T05:23:21;2.50;;;2.40;;
59770;SDS011;45649;53.014;6.600;2022-09-30T05:25:48;2.30;;;2.20;;
59770;SDS011;45649;53.014;6.600;2022-09-30T05:28:15;2.60;;;2.00;;
59770;SDS011;45649;53.014;6.600;2022-09-30T05:30:41;2.30;;;2.20;;
59770;SDS011;45649;53.014;6.600;2022-09-30T05:33:08;2.30;;;2.20;;
59770;SDS011;45649;53.014;6.600;2022-09-30T05:35:34;2.50;;;2.40;;
59770;SDS011;45649;53.014;6.600;2022-09-30T05:38:00;2.40;;;2.30;;
59770;SDS011;45649;53.014;6.600;2022-09-30T05:40:28;3.00;;;2.80;;
59770;SDS011;45649;53.014;6.600;2022-09-30T05:42:55;3.70;;;2.90;;
59770;SDS011;45649;53.014;6.600;2022-09-30T05:45:22;2.87;;;2.77;;
59770;SDS011;45649;53.014;6.600;2022-09-30T05:47:52;3.10;;;2.90;;
59770;SDS011;45649;53.014;6.600;2022-09-30T05:50:18;3.40;;;3.20;;
59770;SDS011;45649;53.014;6.600;2022-09-30T05:52:45;2.80;;;2.70;;
59770;SDS011;45649;53.014;6.600;2022-09-30T05:55:11;3.23;;;2.90;;
59770;SDS011;45649;53.014;6.600;2022-09-30T05:57:37;3.20;;;3.00;;
59770;SDS011;45649;53.014;6.600;2022-09-30T06:00:04;2.87;;;2.67;;
59770;SDS011;45649;53.014;6.600;2022-09-30T06:02:30;2.83;;;2.73;;
59770;SDS011;45649;53.014;6.600;2022-09-30T06:04:57;3.50;;;3.30;;
59770;SDS011;45649;53.014;6.600;2022-09-30T06:07:23;3.97;;;3.67;;
59770;SDS011;45649;53.014;6.600;2022-09-30T06:09:49;4.73;;;3.60;;
59770;SDS011;45649;53.014;6.600;2022-09-30T06:12:15;10.27;;;3.80;;
59770;SDS011;45649;53.014;6.600;2022-09-30T06:14:42;9.33;;;5.40;;
59770;SDS011;45649;53.014;6.600;2022-09-30T06:17:07;12.87;;;5.87;;
59770;SDS011;45649;53.014;6.600;2022-09-30T06:19:33;7.80;;;6.67;;
59770;SDS011;45649;53.014;6.600;2022-09-30T06:21:59;7.10;;;6.50;;
59770;SDS011;45649;53.014;6.600;2022-09-30T06:24:25;7.10;;;6.50;;
59770;SDS011;45649;53.014;6.600;2022-09-30T06:26:51;7.07;;;6.50;;
59770;SDS011;45649;53.014;6.600;2022-09-30T06:29:16;6.40;;;5.80;;
59770;SDS011;45649;53.014;6.600;2022-09-30T06:31:43;5.83;;;5.43;;
59770;SDS011;45649;53.014;6.600;2022-09-30T06:34:10;6.20;;;5.63;;
59770;SDS011;45649;53.014;6.600;2022-09-30T06:36:36;9.03;;;5.10;;
59770;SDS011;45649;53.014;6.600;2022-09-30T06:39:03;5.17;;;4.87;;
59770;SDS011;45649;53.014;6.600;2022-09-30T06:41:29;5.07;;;4.77;;
59770;SDS011;45649;53.014;6.600;2022-09-30T06:43:55;5.20;;;4.90;;
59770;SDS011;45649;53.014;6.600;2022-09-30T06:46:22;5.30;;;4.90;;
59770;SDS011;45649;53.014;6.600;2022-09-30T06:48:52;5.30;;;5.00;;
59770;SDS011;45649;53.014;6.600;2022-09-30T06:51:19;4.50;;;4.23;;
59770;SDS011;45649;53.014;6.600;2022-09-30T06:53:49;5.00;;;4.70;;
59770;SDS011;45649;53.014;6.600;2022-09-30T06:56:15;5.10;;;4.80;;
59770;SDS011;45649;53.014;6.600;2022-09-30T06:58:42;5.43;;;5.03;;
59770;SDS011;45649;53.014;6.600;2022-09-30T07:01:09;5.43;;;5.03;;
59770;SDS011;45649;53.014;6.600;2022-09-30T07:03:38;5.60;;;5.20;;
59770;SDS011;45649;53.014;6.600;2022-09-30T07:06:05;5.80;;;5.40;;
59770;SDS011;45649;53.014;6.600;2022-09-30T07:08:31;9.27;;;8.63;;
59770;SDS011;45649;53.014;6.600;2022-09-30T07:11:03;8.57;;;7.77;;
59770;SDS011;45649;53.014;6.600;2022-09-30T07:13:42;7.77;;;6.70;;
59770;SDS011;45649;53.014;6.600;2022-09-30T07:16:10;8.10;;;7.30;;
59770;SDS011;45649;53.014;6.600;2022-09-30T07:18:37;8.70;;;8.00;;
59770;SDS011;45649;53.014;6.600;2022-09-30T07:21:03;9.23;;;8.50;;
59770;SDS011;45649;53.014;6.600;2022-09-30T07:23:29;9.20;;;8.33;;
59770;SDS011;45649;53.014;6.600;2022-09-30T07:25:57;10.20;;;9.30;;
59770;SDS011;45649;53.014;6.600;2022-09-30T07:28:27;9.80;;;9.00;;
59770;SDS011;45649;53.014;6.600;2022-09-30T07:30:57;10.37;;;9.37;;
59770;SDS011;45649;53.014;6.600;2022-09-30T07:33:26;10.27;;;9.20;;
59770;SDS011;45649;53.014;6.600;2022-09-30T07:35:57;10.37;;;9.47;;
59770;SDS011;45649;53.014;6.600;2022-09-30T07:38:25;9.90;;;9.00;;
59770;SDS011;45649;53.014;6.600;2022-09-30T07:43:22;11.20;;;10.20;;
59770;SDS011;45649;53.014;6.600;2022-09-30T07:45:49;10.63;;;9.57;;
59770;SDS011;45649;53.014;6.600;2022-09-30T07:48:15;10.73;;;9.83;;
59770;SDS011;45649;53.014;6.600;2022-09-30T07:51:14;11.40;;;9.97;;
59770;SDS011;45649;53.014;6.600;2022-09-30T07:53:43;11.23;;;10.03;;
59770;SDS011;45649;53.014;6.600;2022-09-30T07:56:11;14.30;;;12.70;;
59770;SDS011;45649;53.014;6.600;2022-09-30T07:58:37;11.60;;;10.43;;
59770;SDS011;45649;53.014;6.600;2022-09-30T08:01:04;12.53;;;10.87;;
59770;SDS011;45649;53.014;6.600;2022-09-30T08:03:37;12.00;;;10.07;;
59770;SDS011;45649;53.014;6.600;2022-09-30T08:06:06;19.50;;;11.50;;
59770;SDS011;45649;53.014;6.600;2022-09-30T08:08:35;17.80;;;10.37;;
59770;SDS011;45649;53.014;6.600;2022-09-30T08:11:02;19.27;;;11.27;;
59770;SDS011;45649;53.014;6.600;2022-09-30T08:13:28;11.97;;;10.60;;
59770;SDS011;45649;53.014;6.600;2022-09-30T08:15:54;14.50;;;11.10;;
59770;SDS011;45649;53.014;6.600;2022-09-30T08:18:20;12.93;;;10.27;;
59770;SDS011;45649;53.014;6.600;2022-09-30T08:20:46;19.03;;;10.40;;
59770;SDS011;45649;53.014;6.600;2022-09-30T08:23:13;12.70;;;10.53;;
59770;SDS011;45649;53.014;6.600;2022-09-30T08:25:39;12.23;;;10.97;;
59770;SDS011;45649;53.014;6.600;2022-09-30T08:28:05;11.23;;;10.03;;
59770;SDS011;45649;53.014;6.600;2022-09-30T08:30:33;12.47;;;10.93;;
59770;SDS011;45649;53.014;6.600;2022-09-30T08:33:00;29.07;;;11.87;;
59770;SDS011;45649;53.014;6.600;2022-09-30T08:35:26;18.87;;;10.30;;
59770;SDS011;45649;53.014;6.600;2022-09-30T08:37:52;15.97;;;10.63;;
59770;SDS011;45649;53.014;6.600;2022-09-30T08:40:37;12.83;;;10.17;;
59770;SDS011;45649;53.014;6.600;2022-09-30T08:51:21;15.13;;;11.53;;
59770;SDS011;45649;53.014;6.600;2022-09-30T08:53:53;14.47;;;11.50;;
59770;SDS011;45649;53.014;6.600;2022-09-30T08:56:25;14.10;;;11.57;;
59770;SDS011;45649;53.014;6.600;2022-09-30T08:58:55;13.13;;;11.77;;
59770;SDS011;45649;53.014;6.600;2022-09-30T09:01:35;11.80;;;10.43;;
59770;SDS011;45649;53.014;6.600;2022-09-30T09:04:04;12.27;;;10.97;;
59770;SDS011;45649;53.014;6.600;2022-09-30T09:06:50;13.07;;;11.67;;
59770;SDS011;45649;53.014;6.600;2022-09-30T09:09:39;14.90;;;12.20;;
59770;SDS011;45649;53.014;6.600;2022-09-30T09:20:19;15.80;;;12.80;;
59770;SDS011;45649;53.014;6.600;2022-09-30T09:22:47;16.77;;;13.83;;
59770;SDS011;45649;53.014;6.600;2022-09-30T09:25:18;13.43;;;11.53;;
59770;SDS011;45649;53.014;6.600;2022-09-30T09:27:51;15.87;;;13.80;;
59770;SDS011;45649;53.014;6.600;2022-09-30T09:30:19;18.43;;;14.13;;
59770;SDS011;45649;53.014;6.600;2022-09-30T09:32:53;16.10;;;13.47;;
59770;SDS011;45649;53.014;6.600;2022-09-30T09:35:32;16.47;;;12.90;;
59770;SDS011;45649;53.014;6.600;2022-09-30T09:49:26;15.27;;;12.13;;
59770;SDS011;45649;53.014;6.600;2022-09-30T09:54:30;12.80;;;10.97;;
59770;SDS011;45649;53.014;6.600;2022-09-30T09:57:08;9.73;;;8.73;;
59770;SDS011;45649;53.014;6.600;2022-09-30T10:03:03;7.60;;;6.90;;
59770;SDS011;45649;53.014;6.600;2022-09-30T10:05:36;7.40;;;6.70;;
59770;SDS011;45649;53.014;6.600;2022-09-30T10:08:09;6.33;;;5.83;;
59770;SDS011;45649;53.014;6.600;2022-09-30T10:10:43;6.00;;;5.40;;
59770;SDS011;45649;53.014;6.600;2022-09-30T10:13:22;5.33;;;4.93;;
59770;SDS011;45649;53.014;6.600;2022-09-30T10:15:50;4.27;;;3.90;;
59770;SDS011;45649;53.014;6.600;2022-09-30T10:18:28;4.90;;;4.37;;
59770;SDS011;45649;53.014;6.600;2022-09-30T10:20:59;3.70;;;3.40;;
59770;SDS011;45649;53.014;6.600;2022-09-30T10:23:34;3.53;;;3.33;;
59770;SDS011;45649;53.014;6.600;2022-09-30T10:34:30;2.60;;;2.40;;
59770;SDS011;45649;53.014;6.600;2022-09-30T10:37:00;2.53;;;2.43;;
59770;SDS011;45649;53.014;6.600;2022-09-30T10:39:33;2.80;;;2.60;;
59770;SDS011;45649;53.014;6.600;2022-09-30T10:42:05;2.77;;;2.57;;
59770;SDS011;45649;53.014;6.600;2022-09-30T10:44:47;2.87;;;2.50;;
59770;SDS011;45649;53.014;6.600;2022-09-30T10:47:22;2.53;;;2.40;;
59770;SDS011;45649;53.014;6.600;2022-09-30T10:50:12;2.50;;;2.40;;
59770;SDS011;45649;53.014;6.600;2022-09-30T10:55:43;3.20;;;2.90;;
59770;SDS011;45649;53.014;6.600;2022-09-30T11:01:13;3.67;;;3.07;;
59770;SDS011;45649;53.014;6.600;2022-09-30T11:06:32;4.20;;;3.90;;
59770;SDS011;45649;53.014;6.600;2022-09-30T11:09:13;4.27;;;3.70;;
59770;SDS011;45649;53.014;6.600;2022-09-30T11:11:55;4.87;;;4.47;;
59770;SDS011;45649;53.014;6.600;2022-09-30T11:14:32;4.40;;;4.00;;
59770;SDS011;45649;53.014;6.600;2022-09-30T11:33:57;3.10;;;2.90;;
59770;SDS011;45649;53.014;6.600;2022-09-30T11:42:08;3.00;;;2.80;;
59770;SDS011;45649;53.014;6.600;2022-09-30T11:45:00;2.83;;;2.63;;
59770;SDS011;45649;53.014;6.600;2022-09-30T11:47:50;3.20;;;2.90;;
59770;SDS011;45649;53.014;6.600;2022-09-30T11:55:59;2.93;;;2.60;;
59770;SDS011;45649;53.014;6.600;2022-09-30T11:58:24;2.70;;;2.60;;
59770;SDS011;45649;53.014;6.600;2022-09-30T12:00:58;3.23;;;3.00;;
59770;SDS011;45649;53.014;6.600;2022-09-30T12:03:39;2.63;;;2.40;;
59770;SDS011;45649;53.014;6.600;2022-09-30T12:06:10;2.43;;;2.30;;
59770;SDS011;45649;53.014;6.600;2022-09-30T12:08:44;2.47;;;2.27;;
59770;SDS011;45649;53.014;6.600;2022-09-30T12:11:31;4.00;;;2.97;;
59770;SDS011;45649;53.014;6.600;2022-09-30T12:14:34;3.97;;;2.77;;
59770;SDS011;45649;53.014;6.600;2022-09-30T12:17:06;2.67;;;2.57;;
59770;SDS011;45649;53.014;6.600;2022-09-30T12:19:50;2.37;;;2.27;;
59770;SDS011;45649;53.014;6.600;2022-09-30T12:24:48;2.63;;;2.10;;
59770;SDS011;45649;53.014;6.600;2022-09-30T12:30:01;2.83;;;2.63;;
59770;SDS011;45649;53.014;6.600;2022-09-30T12:35:25;3.23;;;3.00;;
59770;SDS011;45649;53.014;6.600;2022-09-30T12:38:42;4.17;;;2.80;;
59770;SDS011;45649;53.014;6.600;2022-09-30T12:41:44;3.07;;;2.80;;
59770;SDS011;45649;53.014;6.600;2022-09-30T12:50:12;3.90;;;3.63;;
59770;SDS011;45649;53.014;6.600;2022-09-30T12:52:40;4.30;;;4.00;;
59770;SDS011;45649;53.014;6.600;2022-09-30T12:55:07;3.43;;;3.23;;
59770;SDS011;45649;53.014;6.600;2022-09-30T12:57:46;5.87;;;5.40;;
59770;SDS011;45649;53.014;6.600;2022-09-30T13:00:16;5.00;;;4.60;;
59770;SDS011;45649;53.014;6.600;2022-09-30T13:03:06;5.87;;;5.37;;
59770;SDS011;45649;53.014;6.600;2022-09-30T13:20:49;6.13;;;5.73;;
59770;SDS011;45649;53.014;6.600;2022-09-30T13:31:25;6.53;;;5.93;;
59770;SDS011;45649;53.014;6.600;2022-09-30T13:41:40;6.47;;;6.03;;
59770;SDS011;45649;53.014;6.600;2022-09-30T13:44:11;6.43;;;5.93;;
59770;SDS011;45649;53.014;6.600;2022-09-30T13:46:48;7.20;;;6.67;;
59770;SDS011;45649;53.014;6.600;2022-09-30T13:49:18;9.13;;;6.50;;
59770;SDS011;45649;53.014;6.600;2022-09-30T13:51:46;7.10;;;6.60;;
59770;SDS011;45649;53.014;6.600;2022-09-30T13:54:16;7.53;;;7.00;;
59770;SDS011;45649;53.014;6.600;2022-09-30T13:56:52;7.27;;;6.67;;
59770;SDS011;45649;53.014;6.600;2022-09-30T14:02:12;6.17;;;5.77;;
59770;SDS011;45649;53.014;6.600;2022-09-30T14:06:11;5.90;;;5.50;;
59770;SDS011;45649;53.014;6.600;2022-09-30T14:08:15;5.67;;;5.13;;
59770;SDS011;45649;53.014;6.600;2022-09-30T14:19:13;6.17;;;5.67;;
59770;SDS011;45649;53.014;6.600;2022-09-30T14:21:55;7.10;;;6.50;;
59770;SDS011;45649;53.014;6.600;2022-09-30T14:24:27;6.33;;;5.83;;
59770;SDS011;45649;53.014;6.600;2022-09-30T14:32:45;5.60;;;5.20;;
59770;SDS011;45649;53.014;6.600;2022-09-30T14:35:21;5.50;;;5.10;;
59770;SDS011;45649;53.014;6.600;2022-09-30T14:37:50;6.37;;;5.90;;
59770;SDS011;45649;53.014;6.600;2022-09-30T14:40:36;6.67;;;6.07;;
59770;SDS011;45649;53.014;6.600;2022-09-30T14:43:05;6.80;;;6.20;;
59770;SDS011;45649;53.014;6.600;2022-09-30T14:45:37;6.63;;;6.03;;
59770;SDS011;45649;53.014;6.600;2022-09-30T14:48:15;5.60;;;5.20;;
59770;SDS011;45649;53.014;6.600;2022-09-30T14:53:32;5.50;;;5.00;;
59770;SDS011;45649;53.014;6.600;2022-09-30T14:56:00;5.27;;;4.77;;
59770;SDS011;45649;53.014;6.600;2022-09-30T14:58:29;5.23;;;4.83;;
59770;SDS011;45649;53.014;6.600;2022-09-30T15:01:09;4.77;;;4.43;;
59770;SDS011;45649;53.014;6.600;2022-09-30T15:03:51;5.33;;;4.70;;
59770;SDS011;45649;53.014;6.600;2022-09-30T15:06:21;5.00;;;4.70;;
59770;SDS011;45649;53.014;6.600;2022-09-30T15:11:32;3.97;;;3.77;;
59770;SDS011;45649;53.014;6.600;2022-09-30T15:14:00;4.43;;;4.13;;
59770;SDS011;45649;53.014;6.600;2022-09-30T15:16:32;4.03;;;3.73;;
59770;SDS011;45649;53.014;6.600;2022-09-30T15:18:58;5.63;;;5.13;;
59770;SDS011;45649;53.014;6.600;2022-09-30T15:21:25;3.77;;;3.57;;
59770;SDS011;45649;53.014;6.600;2022-09-30T15:23:55;5.50;;;5.10;;
59770;SDS011;45649;53.014;6.600;2022-09-30T15:26:24;5.37;;;4.97;;
59770;SDS011;45649;53.014;6.600;2022-09-30T15:28:51;5.20;;;4.70;;
59770;SDS011;45649;53.014;6.600;2022-09-30T15:31:22;6.33;;;5.00;;
59770;SDS011;45649;53.014;6.600;2022-09-30T15:36:36;5.03;;;4.63;;
59770;SDS011;45649;53.014;6.600;2022-09-30T15:39:03;4.37;;;4.07;;
59770;SDS011;45649;53.014;6.600;2022-09-30T15:41:39;4.73;;;4.43;;
59770;SDS011;45649;53.014;6.600;2022-09-30T15:44:07;4.43;;;4.13;;
59770;SDS011;45649;53.014;6.600;2022-09-30T15:46:43;4.00;;;3.80;;
59770;SDS011;45649;53.014;6.600;2022-09-30T15:49:45;4.47;;;4.03;;
59770;SDS011;45649;53.014;6.600;2022-09-30T15:54:45;5.63;;;4.10;;
59770;SDS011;45649;53.014;6.600;2022-09-30T16:05:43;3.70;;;3.50;;
59770;SDS011;45649;53.014;6.600;2022-09-30T16:08:13;4.20;;;3.90;;
59770;SDS011;45649;53.014;6.600;2022-09-30T16:10:54;3.27;;;3.07;;
59770;SDS011;45649;53.014;6.600;2022-09-30T16:13:23;3.80;;;3.50;;
59770;SDS011;45649;53.014;6.600;2022-09-30T16:15:52;4.20;;;3.90;;
59770;SDS011;45649;53.014;6.600;2022-09-30T16:18:25;4.60;;;4.30;;
59770;SDS011;45649;53.014;6.600;2022-09-30T16:20:56;4.73;;;4.30;;
59770;SDS011;45649;53.014;6.600;2022-09-30T16:23:33;5.83;;;5.33;;
59770;SDS011;45649;53.014;6.600;2022-09-30T16:28:57;5.23;;;4.83;;
59770;SDS011;45649;53.014;6.600;2022-09-30T16:31:28;7.07;;;6.47;;
59770;SDS011;45649;53.014;6.600;2022-09-30T16:33:54;7.57;;;6.87;;
59770;SDS011;45649;53.014;6.600;2022-09-30T16:36:20;7.40;;;6.80;;
59770;SDS011;45649;53.014;6.600;2022-09-30T16:38:46;6.87;;;6.27;;
59770;SDS011;45649;53.014;6.600;2022-09-30T16:41:12;6.87;;;6.20;;
59770;SDS011;45649;53.014;6.600;2022-09-30T16:43:39;6.70;;;6.20;;
59770;SDS011;45649;53.014;6.600;2022-09-30T16:46:05;6.97;;;6.37;;
59770;SDS011;45649;53.014;6.600;2022-09-30T16:48:32;6.97;;;6.47;;
59770;SDS011;45649;53.014;6.600;2022-09-30T16:51:12;7.67;;;6.83;;
59770;SDS011;45649;53.014;6.600;2022-09-30T16:53:39;5.13;;;4.80;;
59770;SDS011;45649;53.014;6.600;2022-09-30T16:56:10;6.40;;;5.70;;
59770;SDS011;45649;53.014;6.600;2022-09-30T16:58:43;6.07;;;5.57;;
59770;SDS011;45649;53.014;6.600;2022-09-30T17:01:20;7.33;;;5.40;;
59770;SDS011;45649;53.014;6.600;2022-09-30T17:03:47;4.83;;;4.53;;
59770;SDS011;45649;53.014;6.600;2022-09-30T17:06:13;5.40;;;5.00;;
59770;SDS011;45649;53.014;6.600;2022-09-30T17:08:40;4.90;;;4.60;;
59770;SDS011;45649;53.014;6.600;2022-09-30T17:11:06;4.83;;;4.43;;
59770;SDS011;45649;53.014;6.600;2022-09-30T17:13:31;5.47;;;4.97;;
59770;SDS011;45649;53.014;6.600;2022-09-30T17:15:58;4.47;;;4.17;;
59770;SDS011;45649;53.014;6.600;2022-09-30T17:18:25;4.93;;;4.53;;
59770;SDS011;45649;53.014;6.600;2022-09-30T17:20:51;4.83;;;4.53;;
59770;SDS011;45649;53.014;6.600;2022-09-30T17:23:21;4.43;;;4.00;;
59770;SDS011;45649;53.014;6.600;2022-09-30T17:25:48;5.10;;;4.70;;
59770;SDS011;45649;53.014;6.600;2022-09-30T17:28:15;4.20;;;3.90;;
59770;SDS011;45649;53.014;6.600;2022-09-30T17:30:42;5.13;;;4.73;;
59770;SDS011;45649;53.014;6.600;2022-09-30T17:33:10;4.50;;;4.20;;
59770;SDS011;45649;53.014;6.600;2022-09-30T17:35:37;4.80;;;4.40;;
59770;SDS011;45649;53.014;6.600;2022-09-30T17:38:08;4.43;;;4.07;;
59770;SDS011;45649;53.014;6.600;2022-09-30T17:40:37;4.50;;;4.10;;
59770;SDS011;45649;53.014;6.600;2022-09-30T17:43:21;3.37;;;3.17;;
59770;SDS011;45649;53.014;6.600;2022-09-30T17:45:48;4.20;;;3.90;;
59770;SDS011;45649;53.014;6.600;2022-09-30T17:48:19;4.03;;;3.73;;
59770;SDS011;45649;53.014;6.600;2022-09-30T17:50:46;3.60;;;3.30;;
59770;SDS011;45649;53.014;6.600;2022-09-30T17:53:13;3.73;;;3.40;;
59770;SDS011;45649;53.014;6.600;2022-09-30T17:55:43;4.97;;;3.55;;
59770;SDS011;45649;53.014;6.600;2022-09-30T17:58:12;3.60;;;3.20;;
59770;SDS011;45649;53.014;6.600;2022-09-30T18:00:38;3.00;;;2.80;;
59770;SDS011;45649;53.014;6.600;2022-09-30T18:03:04;3.10;;;2.90;;
59770;SDS011;45649;53.014;6.600;2022-09-30T18:05:31;3.40;;;3.20;;
59770;SDS011;45649;53.014;6.600;2022-09-30T18:07:57;3.00;;;2.80;;
59770;SDS011;45649;53.014;6.600;2022-09-30T18:10:23;2.93;;;2.73;;
59770;SDS011;45649;53.014;6.600;2022-09-30T18:12:51;2.93;;;2.70;;
59770;SDS011;45649;53.014;6.600;2022-09-30T18:15:19;3.70;;;2.70;;
59770;SDS011;45649;53.014;6.600;2022-09-30T18:17:46;2.80;;;2.60;;
59770;SDS011;45649;53.014;6.600;2022-09-30T18:20:12;3.47;;;2.80;;
59770;SDS011;45649;53.014;6.600;2022-09-30T18:22:38;2.70;;;2.50;;
59770;SDS011;45649;53.014;6.600;2022-09-30T18:25:04;2.80;;;2.60;;
59770;SDS011;45649;53.014;6.600;2022-09-30T18:27:48;3.37;;;2.97;;
59770;SDS011;45649;53.014;6.600;2022-09-30T18:30:16;3.37;;;2.73;;
59770;SDS011;45649;53.014;6.600;2022-09-30T18:32:45;3.03;;;2.80;;
59770;SDS011;45649;53.014;6.600;2022-09-30T18:35:12;3.00;;;2.70;;
59770;SDS011;45649;53.014;6.600;2022-09-30T18:37:39;3.70;;;3.07;;
59770;SDS011;45649;53.014;6.600;2022-09-30T18:40:06;3.53;;;2.60;;